createdAt,value
2022-12-14T00:02:10.039Z,-4.50
2022-12-14T00:05:04.374Z,-4.40
2022-12-14T00:08:05.237Z,-4.40
2022-12-14T00:10:49.947Z,-4.20
2022-12-14T00:13:53.164Z,-4.10
2022-12-14T00:16:32.047Z,-4.20
2022-12-14T00:19:26.212Z,-4.30
2022-12-14T00:22:10.343Z,-4.10
2022-12-14T00:25:08.664Z,-4.20
2022-12-14T00:27:54.653Z,-4.00
2022-12-14T00:30:58.033Z,-4.20
2022-12-14T00:33:35.057Z,-4.10
2022-12-14T00:36:19.495Z,-4.10
2022-12-14T00:39:07.223Z,-3.90
2022-12-14T00:41:53.567Z,-4.00
2022-12-14T00:44:37.565Z,-4.00
2022-12-14T00:47:26.680Z,-4.10
2022-12-14T00:50:02.328Z,-4.00
2022-12-14T00:52:44.198Z,-3.80
2022-12-14T00:55:19.649Z,-3.70
2022-12-14T00:58:15.452Z,-3.50
2022-12-14T01:00:51.912Z,-3.20
2022-12-14T01:03:45.102Z,-3.30
2022-12-14T01:06:29.024Z,-3.10
2022-12-14T01:09:23.702Z,-2.70
2022-12-14T01:12:09.230Z,-2.80
2022-12-14T01:14:49.602Z,-2.60
2022-12-14T01:17:35.103Z,-2.50
2022-12-14T01:20:21.150Z,-2.20
2022-12-14T01:23:11.002Z,-2.30
2022-12-14T01:26:18.640Z,-2.30
2022-12-14T01:29:01.663Z,-2.10
2022-12-14T01:32:03.278Z,-2.10
2022-12-14T01:34:47.571Z,-2.00
2022-12-14T01:37:29.119Z,-1.90
2022-12-14T01:40:35.050Z,-1.90
2022-12-14T01:44:53.214Z,-1.70
2022-12-14T01:47:26.327Z,-1.90
2022-12-14T01:50:44.369Z,-1.80
2022-12-14T01:58:34.188Z,-1.90
2022-12-14T02:08:48.223Z,-1.70
2022-12-14T02:14:45.763Z,-1.80
2022-12-14T02:17:28.155Z,-1.70
2022-12-14T02:24:03.727Z,-1.70
2022-12-14T02:27:25.016Z,-1.70
2022-12-14T02:30:13.354Z,-1.70
2022-12-14T02:33:09.833Z,-1.70
2022-12-14T02:36:06.749Z,-1.70
2022-12-14T02:38:57.335Z,-1.70
2022-12-14T02:41:53.268Z,-1.80
2022-12-14T02:45:00.478Z,-1.90
2022-12-14T02:48:02.281Z,-1.70
2022-12-14T02:50:54.687Z,-1.60
2022-12-14T02:54:16.571Z,-1.50
2022-12-14T02:57:30.661Z,-1.70
2022-12-14T03:00:16.425Z,-1.60
2022-12-14T03:02:57.395Z,-1.60
2022-12-14T03:05:59.073Z,-1.50
2022-12-14T03:08:51.018Z,-1.50
2022-12-14T03:14:52.961Z,-1.40
2022-12-14T03:18:14.115Z,-1.50
2022-12-14T03:23:47.442Z,-1.50
2022-12-14T03:26:30.555Z,-1.40
2022-12-14T03:29:47.634Z,-1.40
2022-12-14T03:32:33.501Z,-1.40
2022-12-14T03:35:11.782Z,-1.40
2022-12-14T03:37:53.951Z,-1.40
2022-12-14T03:40:39.719Z,-1.40
2022-12-14T03:43:38.271Z,-1.30
2022-12-14T03:46:36.088Z,-1.40
2022-12-14T03:57:59.669Z,-1.30
2022-12-14T04:01:04.647Z,-1.40
2022-12-14T04:07:33.049Z,-1.50
2022-12-14T04:10:30.865Z,-1.40
2022-12-14T04:22:03.987Z,-1.50
2022-12-14T04:36:27.784Z,-1.40
2022-12-14T04:39:34.944Z,-1.30
2022-12-14T08:05:55.987Z,-0.30
2022-12-14T08:09:34.724Z,-0.30
2022-12-14T08:23:49.799Z,0.00
2022-12-14T08:27:17.568Z,-0.10
2022-12-14T08:55:06.361Z,0.60
2022-12-14T09:09:49.391Z,0.60
2022-12-14T09:13:17.950Z,0.70
2022-12-14T09:21:24.052Z,0.80
2022-12-14T09:24:51.596Z,1.00
2022-12-14T11:31:40.796Z,2.30
2022-12-14T11:34:28.571Z,2.40
2022-12-14T11:37:23.390Z,2.30
2022-12-14T11:40:14.671Z,2.30
2022-12-14T11:43:05.225Z,2.40
2022-12-14T11:46:12.797Z,2.20
2022-12-14T12:36:26.368Z,2.10
2022-12-14T12:47:28.191Z,2.30
2022-12-14T12:50:32.516Z,2.10
2022-12-14T12:53:30.226Z,2.10
2022-12-14T12:56:22.920Z,2.10
2022-12-14T13:11:17.381Z,2.00
2022-12-14T13:17:42.360Z,2.10
2022-12-14T13:20:42.423Z,2.10
2022-12-14T13:23:47.074Z,2.30
2022-12-14T13:27:16.922Z,2.30
2022-12-14T13:30:41.385Z,2.10
2022-12-14T13:34:21.049Z,2.10
2022-12-14T13:37:47.065Z,2.00
2022-12-14T13:41:11.710Z,2.00
2022-12-14T13:44:20.039Z,2.10
2022-12-14T13:53:50.619Z,2.00
2022-12-14T13:56:59.630Z,2.00
2022-12-14T14:00:04.771Z,2.00
2022-12-14T14:03:02.939Z,2.00
2022-12-14T14:09:22.111Z,2.00
2022-12-14T14:12:31.362Z,2.00
2022-12-14T14:19:49.386Z,1.90
2022-12-14T14:22:29.674Z,1.90
2022-12-14T14:26:01.252Z,1.90
2022-12-14T14:28:45.092Z,1.90
2022-12-14T14:31:49.567Z,1.80
2022-12-14T14:38:32.451Z,1.90
2022-12-14T14:41:52.702Z,1.80
2022-12-14T14:44:58.144Z,1.70
2022-12-14T14:52:26.065Z,1.90
2022-12-14T14:56:08.323Z,1.90
2022-12-14T15:00:05.125Z,1.90
2022-12-14T15:43:47.779Z,1.80
2022-12-14T15:46:53.477Z,1.80
2022-12-14T15:49:46.519Z,1.80
2022-12-14T15:53:11.717Z,1.90
2022-12-14T15:59:12.000Z,1.70
2022-12-14T16:05:22.478Z,1.80
2022-12-14T16:08:32.612Z,1.60
2022-12-14T16:11:20.102Z,1.90
2022-12-14T16:14:51.694Z,1.90
2022-12-14T16:18:13.918Z,1.90
2022-12-14T16:21:03.817Z,1.90
2022-12-14T16:23:46.525Z,1.80
2022-12-14T16:26:36.232Z,1.70
2022-12-14T16:30:32.378Z,1.90
2022-12-14T16:33:58.041Z,1.60
2022-12-14T16:41:22.200Z,1.70
2022-12-14T16:48:17.129Z,1.60
2022-12-14T17:28:47.133Z,1.40
2022-12-14T17:31:50.903Z,1.50
2022-12-14T17:39:40.561Z,1.40
2022-12-14T17:42:46.090Z,1.30
2022-12-14T17:45:22.361Z,1.50
2022-12-14T17:53:03.892Z,1.50
2022-12-14T19:21:59.787Z,1.30
2022-12-14T19:59:44.378Z,1.00
2022-12-14T20:03:14.406Z,1.00
2022-12-14T20:06:05.937Z,1.10
2022-12-14T20:09:07.476Z,1.00
2022-12-14T20:15:22.036Z,1.00
2022-12-14T20:18:16.842Z,1.00
2022-12-14T20:20:52.686Z,1.00
2022-12-14T20:23:54.875Z,1.00
2022-12-14T20:27:11.942Z,1.00
2022-12-14T20:30:22.398Z,0.70
2022-12-14T20:37:01.642Z,0.50
2022-12-14T20:40:15.540Z,0.40
2022-12-14T20:43:16.776Z,0.30
2022-12-14T20:49:07.862Z,0.20
2022-12-14T20:52:10.103Z,0.10
2022-12-14T20:55:22.285Z,0.00
2022-12-14T21:05:09.380Z,-0.10
2022-12-14T21:07:55.531Z,0.00
2022-12-14T21:11:37.301Z,-0.30
2022-12-14T21:14:35.168Z,-0.40
2022-12-14T21:17:07.277Z,-0.40
2022-12-14T21:19:45.418Z,-0.50
2022-12-14T21:22:32.670Z,-0.60
2022-12-14T21:25:31.154Z,-0.80
2022-12-14T21:28:28.845Z,-0.70
2022-12-14T21:31:30.165Z,-0.70
2022-12-14T21:37:37.436Z,-0.90
2022-12-14T21:43:25.692Z,-1.00
2022-12-14T21:46:32.956Z,-1.10
2022-12-14T21:49:21.157Z,-1.20
2022-12-14T21:52:11.632Z,-1.30
2022-12-14T21:55:07.796Z,-1.30
2022-12-14T21:58:09.876Z,-1.30
2022-12-14T22:01:05.445Z,-1.40
2022-12-14T22:12:52.488Z,-1.50
2022-12-14T22:15:49.429Z,-1.60
2022-12-14T22:21:37.018Z,-1.60
2022-12-14T22:24:23.423Z,-1.50
2022-12-14T22:27:11.206Z,-1.70
2022-12-14T22:29:55.494Z,-1.70
2022-12-14T22:32:49.712Z,-1.80
2022-12-14T22:39:23.263Z,-2.00
2022-12-14T22:41:54.632Z,-2.00
2022-12-14T22:45:01.939Z,-2.10
2022-12-14T22:47:55.172Z,-2.10
2022-12-14T22:50:40.436Z,-2.20
2022-12-14T22:53:31.452Z,-2.20
2022-12-14T22:56:21.115Z,-2.20
2022-12-14T22:59:14.967Z,-2.20
2022-12-14T23:02:07.659Z,-2.30
2022-12-14T23:05:14.245Z,-2.40
2022-12-14T23:08:39.902Z,-2.40
2022-12-14T23:11:31.826Z,-2.40
2022-12-14T23:14:41.463Z,-2.60
2022-12-14T23:17:35.308Z,-2.60
2022-12-14T23:23:40.893Z,-2.70
2022-12-14T23:26:53.626Z,-2.80
2022-12-14T23:33:12.216Z,-2.80
2022-12-14T23:36:32.510Z,-2.80
2022-12-14T23:42:55.548Z,-2.90
2022-12-14T23:45:48.549Z,-3.00
2022-12-14T23:48:44.925Z,-3.00
2022-12-14T23:51:46.797Z,-3.10
2022-12-14T23:55:04.101Z,-3.10
2022-12-14T23:58:17.037Z,-3.30
